Time;durP1;ratioP1;P1;durP2;ratioP2;P2;SDS_P1;SDS_P2;PMS_P1;PMS_P2;Temp;Humidity;BMP_temperature;BMP_pressure;BME280_temperature;BME280_humidity;BME280_pressure;Samples;Min_cycle;Max_cycle;Signal;HPM_P1;HPM_P2
2023/12/29 06:13:32;;;;;;;;;;;;;;;3.41;100.00;99775.58;1831308;76;20133;-83
2023/12/29 06:20:58;;;;;;;;;;;;;;;3.51;100.00;99775.26;1796355;79;20423;-66
2023/12/29 06:23:25;;;;;;;;;;;;;;;3.58;100.00;99776.75;1796454;79;20172;-66
2023/12/29 06:25:52;;;;;;;;;;;;;;;3.65;100.00;99777.38;1806995;78;20120;-74
2023/12/29 06:28:18;;;;;;;;;;;;;;;3.74;100.00;99780.95;1804074;79;20086;-76
2023/12/29 06:30:45;;;;;;;;;;;;;;;3.80;100.00;99792.34;1805114;79;20143;-72
2023/12/29 06:33:13;;;;;;;;;;;;;;;3.83;100.00;99788.37;1795365;79;20128;-72
2023/12/29 06:35:40;;;;;;;;;;;;;;;3.87;100.00;99789.13;1803894;79;20129;-70
2023/12/29 06:38:06;;;;;;;;;;;;;;;3.89;100.00;99788.18;1793002;78;20136;-70
2023/12/29 06:40:40;;;;;;;;;;;;;;;3.89;100.00;99779.61;1788623;80;20159;-66
2023/12/29 06:55:39;;;;;;;;;;;;;;;3.99;100.00;99783.58;1800070;78;20153;-69
2023/12/29 06:58:05;;;;;;;;;;;;;;;4.01;100.00;99777.89;1801063;79;20371;-66
2023/12/29 07:00:33;;;;;;;;;;;;;;;4.03;100.00;99774.82;1788703;79;20109;-69
2023/12/29 07:03:01;;;;;;;;;;;;;;;4.06;100.00;99777.30;1791588;79;20405;-65
2023/12/29 07:05:27;;;;;;;;;;;;;;;4.11;100.00;99769.41;1803555;79;20123;-65
2023/12/29 07:07:54;;;;;;;;;;;;;;;4.14;100.00;99780.46;1777675;79;20157;-64
2023/12/29 07:10:20;;;;;;;;;;;;;;;4.18;100.00;99781.20;1821132;79;20106;-69
2023/12/29 07:12:48;;;;;;;;;;;;;;;4.21;100.00;99782.39;1808409;78;20172;-71
2023/12/29 07:15:16;;;;;;;;;;;;;;;4.24;100.00;99784.41;1786007;79;20089;-73
2023/12/29 07:17:42;;;;;;;;;;;;;;;4.27;100.00;99782.19;1778596;81;20421;-68
2023/12/29 07:20:09;;;;;;;;;;;;;;;4.30;100.00;99781.63;1777864;81;20171;-65
2023/12/29 07:22:36;;;;;;;;;;;;;;;4.33;100.00;99780.69;1787173;79;20126;-66
2023/12/29 07:25:03;;;;;;;;;;;;;;;4.38;100.00;99784.39;1793146;79;20132;-68
2023/12/29 07:27:32;;;;;;;;;;;;;;;4.41;100.00;99788.97;1788030;79;20095;-69
2023/12/29 07:29:59;;;;;;;;;;;;;;;4.46;100.00;99787.52;1778802;79;20352;-68
2023/12/29 07:32:25;;;;;;;;;;;;;;;4.52;100.00;99783.45;1784670;79;20438;-66
2023/12/29 07:34:58;;;;;;;;;;;;;;;4.57;100.00;99781.55;1780585;79;20169;-74
2023/12/29 07:37:31;;;;;;;;;;;;;;;4.64;100.00;99783.02;1796831;79;20179;-65
2023/12/29 07:39:58;;;;;;;;;;;;;;;4.72;100.00;99780.16;1808706;79;20149;-66
2023/12/29 07:42:24;;;;;;;;;;;;;;;4.78;100.00;99786.39;1807371;79;20157;-66
2023/12/29 07:44:51;;;;;;;;;;;;;;;4.82;100.00;99782.33;1784450;79;20104;-64
2023/12/29 07:47:18;;;;;;;;;;;;;;;4.85;100.00;99777.50;1778700;77;20133;-65
2023/12/29 07:49:44;;;;;;;;;;;;;;;4.89;100.00;99781.21;1790918;79;20140;-69
2023/12/29 07:52:11;;;;;;;;;;;;;;;4.93;100.00;99784.52;1787084;79;20088;-67
2023/12/29 07:54:37;;;;;;;;;;;;;;;4.95;100.00;99779.70;1792173;79;20138;-64
2023/12/29 07:57:04;;;;;;;;;;;;;;;4.97;100.00;99788.22;1797689;79;20134;-64
2023/12/29 07:59:31;;;;;;;;;;;;;;;4.99;100.00;99793.33;1782112;79;20104;-66
2023/12/29 08:01:57;;;;;;;;;;;;;;;5.00;100.00;99788.11;1780563;79;20128;-67
2023/12/29 08:04:24;;;;;;;;;;;;;;;5.06;100.00;99793.95;1782675;79;20372;-68
2023/12/29 08:06:50;;;;;;;;;;;;;;;5.09;100.00;99796.41;1787749;80;20103;-65
2023/12/29 08:09:16;;;;;;;;;;;;;;;5.13;100.00;99801.41;1795699;80;20118;-68
2023/12/29 08:11:43;;;;;;;;;;;;;;;5.19;100.00;99805.50;1830254;77;20103;-67
2023/12/29 08:14:11;;;;;;;;;;;;;;;5.24;100.00;99806.14;1794120;79;20097;-68
2023/12/29 08:16:41;;;;;;;;;;;;;;;5.30;100.00;99799.01;1794100;79;20147;-67
2023/12/29 08:19:08;;;;;;;;;;;;;;;5.35;100.00;99793.67;1801366;79;20094;-68
2023/12/29 08:21:36;;;;;;;;;;;;;;;5.43;100.00;99799.38;1793246;79;20108;-68
2023/12/29 08:24:07;;;;;;;;;;;;;;;5.53;100.00;99800.71;1792671;79;20157;-73
2023/12/29 08:26:34;;;;;;;;;;;;;;;5.66;100.00;99804.92;1794475;79;20488;-70
2023/12/29 08:29:00;;;;;;;;;;;;;;;5.77;100.00;99805.80;1787466;79;20082;-73
2023/12/29 08:31:29;;;;;;;;;;;;;;;5.83;100.00;99797.34;1796987;79;20128;-70
2023/12/29 08:33:55;;;;;;;;;;;;;;;5.88;100.00;99790.25;1794689;79;20404;-71
2023/12/29 08:36:22;;;;;;;;;;;;;;;5.95;100.00;99792.17;1757638;80;20116;-72
2023/12/29 08:38:48;;;;;;;;;;;;;;;6.00;100.00;99794.09;1792762;79;20122;-67
2023/12/29 08:41:16;;;;;;;;;;;;;;;6.08;100.00;99797.66;1786724;79;20132;-70
2023/12/29 08:43:42;;;;;;;;;;;;;;;6.15;100.00;99793.46;1784647;79;20112;-72
2023/12/29 08:46:09;;;;;;;;;;;;;;;6.22;100.00;99796.64;1815722;79;20094;-73
2023/12/29 08:48:35;;;;;;;;;;;;;;;6.25;100.00;99790.88;1814654;79;20094;-70
2023/12/29 08:51:02;;;;;;;;;;;;;;;6.29;100.00;99791.14;1796831;79;20090;-70
2023/12/29 08:53:31;;;;;;;;;;;;;;;6.35;100.00;99789.59;1806739;79;20106;-71
2023/12/29 08:55:57;;;;;;;;;;;;;;;6.41;100.00;99792.34;1787203;79;20132;-72
2023/12/29 08:58:23;;;;;;;;;;;;;;;6.46;100.00;99786.52;1782573;80;20120;-71
2023/12/29 09:00:49;;;;;;;;;;;;;;;6.52;100.00;99786.27;1783598;80;20104;-72
2023/12/29 09:03:16;;;;;;;;;;;;;;;6.57;100.00;99781.73;1794575;79;20948;-68
2023/12/29 09:05:43;;;;;;;;;;;;;;;6.64;100.00;99772.80;1799713;79;20101;-70
2023/12/29 09:08:17;;;;;;;;;;;;;;;6.69;100.00;99773.44;1803559;79;20430;-70
2023/12/29 09:10:43;;;;;;;;;;;;;;;6.77;100.00;99764.50;1792184;79;20137;-74
2023/12/29 09:13:10;;;;;;;;;;;;;;;6.82;100.00;99766.40;1784108;79;20089;-76
2023/12/29 09:15:36;;;;;;;;;;;;;;;6.86;100.00;99768.78;1779275;79;20149;-71
2023/12/29 09:18:06;;;;;;;;;;;;;;;6.92;100.00;99765.08;1779114;79;20382;-72
2023/12/29 09:20:32;;;;;;;;;;;;;;;6.95;100.00;99758.47;1776840;80;20127;-69
2023/12/29 09:22:59;;;;;;;;;;;;;;;7.01;100.00;99762.08;1776999;81;20151;-70
2023/12/29 09:25:26;;;;;;;;;;;;;;;7.03;100.00;99761.56;1776723;81;20128;-73
2023/12/29 09:27:53;;;;;;;;;;;;;;;7.04;100.00;99761.94;1791306;77;20119;-71
2023/12/29 09:30:19;;;;;;;;;;;;;;;7.06;100.00;99758.83;1782274;77;20131;-74
2023/12/29 09:32:45;;;;;;;;;;;;;;;7.09;100.00;99758.69;1780798;79;20198;-70
2023/12/29 09:35:12;;;;;;;;;;;;;;;7.12;100.00;99761.59;1784616;79;20333;-73
2023/12/29 09:37:38;;;;;;;;;;;;;;;7.15;100.00;99753.69;1798989;79;20410;-68
2023/12/29 09:40:06;;;;;;;;;;;;;;;7.21;100.00;99762.44;1797167;79;20114;-72
2023/12/29 09:42:34;;;;;;;;;;;;;;;7.25;100.00;99762.22;1791023;79;20191;-74
2023/12/29 10:54:08;;;;;;;;;;;;;;;7.03;100.00;99686.48;1813962;78;20116;-80
2023/12/29 10:56:34;;;;;;;;;;;;;;;7.04;100.00;99689.45;1808294;78;20171;-81
2023/12/29 10:59:03;;;;;;;;;;;;;;;7.06;100.00;99686.34;1800375;78;20457;-73
2023/12/29 11:01:31;;;;;;;;;;;;;;;7.07;100.00;99682.00;1804713;78;20158;-68
2023/12/29 11:03:59;;;;;;;;;;;;;;;7.09;100.00;99685.36;1812921;78;20127;-72
2023/12/29 11:06:27;;;;;;;;;;;;;;;7.10;100.00;99683.16;1818423;78;20111;-73
2023/12/29 11:23:45;;;;;;;;;;;;;;;7.20;100.00;99668.83;1783637;77;20089;-75
2023/12/29 11:26:12;;;;;;;;;;;;;;;7.21;100.00;99666.63;1757807;79;20130;-73
2023/12/29 11:28:38;;;;;;;;;;;;;;;7.23;100.00;99668.23;1814891;78;20905;-74
2023/12/29 11:31:05;;;;;;;;;;;;;;;7.27;100.00;99670.22;1815652;79;20385;-73
